createdAt,value
2019-04-20T00:01:03.405Z,54.50
2019-04-20T00:03:45.607Z,54.80
2019-04-20T00:06:26.978Z,54.20
2019-04-20T00:09:13.992Z,53.80
2019-04-20T00:12:01.592Z,54.10
2019-04-20T00:14:34.519Z,54.80
2019-04-20T00:17:14.047Z,54.60
2019-04-20T00:19:56.087Z,55.00
2019-04-20T00:26:19.499Z,56.20
2019-04-20T00:29:07.062Z,56.70
2019-04-20T00:31:45.958Z,56.70
2019-04-20T00:34:21.297Z,56.90
2019-04-20T00:36:43.364Z,56.90
2019-04-20T00:39:32.052Z,57.40
2019-04-20T00:42:15.895Z,57.30
2019-04-20T00:45:00.652Z,57.20
2019-04-20T00:47:47.757Z,57.50
2019-04-20T00:50:34.279Z,57.60
2019-04-20T00:53:11.362Z,57.90
2019-04-20T00:55:44.333Z,57.20
2019-04-20T00:58:33.634Z,57.40
2019-04-20T01:01:17.250Z,57.10
2019-04-20T01:03:39.195Z,56.80
2019-04-20T01:06:42.486Z,56.50
2019-04-20T01:09:16.097Z,56.80
2019-04-20T01:11:56.622Z,56.80
2019-04-20T01:14:44.876Z,56.70
2019-04-20T01:17:19.132Z,57.30
2019-04-20T01:19:59.099Z,57.50
2019-04-20T01:22:44.623Z,57.80
2019-04-20T01:25:27.047Z,57.80
2019-04-20T01:28:19.338Z,57.70
2019-04-20T01:31:00.171Z,57.70
2019-04-20T01:33:41.595Z,58.10
2019-04-20T01:36:33.568Z,58.30
2019-04-20T01:39:02.708Z,58.80
2019-04-20T01:41:35.081Z,58.40
2019-04-20T01:44:13.482Z,58.20
2019-04-20T01:46:58.672Z,58.20
2019-04-20T01:49:38.440Z,58.00
2019-04-20T01:52:27.017Z,57.80
2019-04-20T01:55:22.997Z,57.80
2019-04-20T01:58:06.362Z,58.10
2019-04-20T02:00:52.729Z,57.40
2019-04-20T02:03:43.053Z,56.90
2019-04-20T02:06:23.114Z,56.00
2019-04-20T02:09:09.699Z,56.20
2019-04-20T02:11:49.772Z,56.50
2019-04-20T02:14:35.881Z,56.80
2019-04-20T02:17:20.233Z,56.50
2019-04-20T02:20:13.788Z,56.80
2019-04-20T02:22:51.532Z,56.90
2019-04-20T02:25:16.323Z,56.70
2019-04-20T02:28:16.682Z,57.10
2019-04-20T02:31:20.676Z,56.40
2019-04-20T02:33:59.193Z,56.50
2019-04-20T02:36:55.178Z,56.00
2019-04-20T02:42:10.160Z,55.70
2019-04-20T02:44:48.135Z,56.10
2019-04-20T02:47:32.151Z,56.70
2019-04-20T02:50:15.410Z,57.60
2019-04-20T02:52:56.362Z,57.80
2019-04-20T02:58:18.674Z,58.00
2019-04-20T03:00:53.969Z,58.80
2019-04-20T03:03:22.749Z,59.00
2019-04-20T03:06:08.548Z,59.70
2019-04-20T03:08:58.889Z,59.30
2019-04-20T03:11:49.835Z,60.20
2019-04-20T03:14:19.075Z,59.60
2019-04-20T03:17:08.117Z,60.00
2019-04-20T03:19:39.436Z,60.80
2019-04-20T03:22:29.168Z,61.30
2019-04-20T03:25:15.645Z,61.50
2019-04-20T03:28:00.917Z,61.80
2019-04-20T03:34:13.581Z,61.50
2019-04-20T03:36:42.626Z,61.60
2019-04-20T03:39:13.835Z,61.80
2019-04-20T03:41:41.990Z,61.90
2019-04-20T03:44:21.479Z,62.60
2019-04-20T03:47:03.406Z,62.70
2019-04-20T03:50:07.364Z,62.80
2019-04-20T03:53:13.953Z,63.10
2019-04-20T03:56:11.730Z,63.00
2019-04-20T03:58:54.752Z,63.00
2019-04-20T04:02:22.129Z,63.50
2019-04-20T04:05:06.173Z,63.40
2019-04-20T04:07:38.056Z,63.70
2019-04-20T04:10:27.361Z,63.80
2019-04-20T04:12:54.727Z,63.90
2019-04-20T04:21:46.828Z,63.40
2019-04-20T04:24:26.088Z,64.10
2019-04-20T04:27:09.155Z,64.40
2019-04-20T04:29:58.298Z,64.50
2019-04-20T04:32:58.657Z,65.00
2019-04-20T04:35:16.792Z,65.30
2019-04-20T04:38:02.766Z,65.80
2019-04-20T04:40:55.490Z,65.60
2019-04-20T04:43:27.037Z,65.70
2019-04-20T04:52:00.242Z,64.00
2019-04-20T04:54:41.337Z,64.90
2019-04-20T04:57:15.717Z,64.20
2019-04-20T04:59:57.261Z,64.60
2019-04-20T05:02:34.762Z,64.70
2019-04-20T05:05:49.395Z,64.80
2019-04-20T05:08:24.116Z,65.00
2019-04-20T05:11:00.619Z,65.60
2019-04-20T05:13:49.053Z,65.80
2019-04-20T05:16:42.235Z,65.70
2019-04-20T05:19:24.741Z,65.30
2019-04-20T05:22:17.812Z,65.30
2019-04-20T05:28:04.157Z,65.30
2019-04-20T05:30:24.542Z,65.40
2019-04-20T05:33:09.124Z,64.70
2019-04-20T05:36:06.855Z,64.50
2019-04-20T05:39:11.676Z,64.20
2019-04-20T05:41:26.774Z,63.60
2019-04-20T05:44:12.808Z,63.10
2019-04-20T05:47:06.933Z,63.20
2019-04-20T05:49:41.956Z,62.60
2019-04-20T05:52:39.106Z,61.30
2019-04-20T05:55:09.017Z,60.70
2019-04-20T05:57:56.968Z,61.00
2019-04-20T06:00:40.213Z,59.80
2019-04-20T06:03:00.791Z,58.40
2019-04-20T06:08:48.013Z,55.80
2019-04-20T06:11:23.792Z,55.00
2019-04-20T06:14:10.477Z,54.70
2019-04-20T06:17:25.552Z,54.00
2019-04-20T06:20:06.131Z,54.30
2019-04-20T06:22:50.785Z,52.90
2019-04-20T06:25:56.147Z,52.70
2019-04-20T06:28:24.572Z,52.60
2019-04-20T06:31:10.726Z,53.00
2019-04-20T06:37:02.079Z,51.60
2019-04-20T06:39:47.485Z,52.40
2019-04-20T06:48:47.142Z,46.90
2019-04-20T06:51:31.840Z,47.70
2019-04-20T06:54:20.919Z,46.50
2019-04-20T06:57:10.271Z,47.60
2019-04-20T06:59:52.541Z,46.70
2019-04-20T07:02:38.669Z,45.90
2019-04-20T07:08:02.631Z,46.30
2019-04-20T07:10:43.953Z,48.10
2019-04-20T07:13:15.503Z,48.00
2019-04-20T07:16:15.855Z,47.00
2019-04-20T07:19:21.383Z,45.20
2019-04-20T07:27:32.485Z,44.30
2019-04-20T07:30:14.450Z,42.30
2019-04-20T07:32:59.034Z,41.80
2019-04-20T07:35:46.524Z,39.70
2019-04-20T07:38:32.174Z,40.30
2019-04-20T07:41:00.003Z,39.90
2019-04-20T07:43:57.337Z,40.30
2019-04-20T07:46:41.200Z,40.30
2019-04-20T07:49:07.681Z,40.90
2019-04-20T07:51:35.484Z,39.00
2019-04-20T07:54:35.490Z,39.30
2019-04-20T07:57:18.377Z,39.20
2019-04-20T07:59:56.217Z,38.10
2019-04-20T08:03:03.394Z,36.30
2019-04-20T08:05:53.852Z,35.40
2019-04-20T08:08:40.663Z,34.80
2019-04-20T08:11:21.132Z,33.00
2019-04-20T08:14:13.304Z,33.80
2019-04-20T08:16:58.701Z,34.20
2019-04-20T08:19:31.544Z,31.20
2019-04-20T08:22:16.835Z,32.30
2019-04-20T08:24:48.254Z,31.80
2019-04-20T08:27:20.104Z,30.70
2019-04-20T08:30:28.188Z,30.30
2019-04-20T08:36:14.635Z,27.70
2019-04-20T08:41:26.086Z,27.80
2019-04-20T08:44:39.574Z,28.80
2019-04-20T08:47:03.831Z,28.10
2019-04-20T08:49:41.312Z,26.30
2019-04-20T08:52:38.213Z,25.10
2019-04-20T08:55:03.079Z,25.30
2019-04-20T08:57:24.742Z,24.00
2019-04-20T09:00:06.586Z,24.20
2019-04-20T09:02:48.913Z,26.70
2019-04-20T09:05:41.325Z,24.40
2019-04-20T09:08:10.403Z,26.60
2019-04-20T09:11:07.041Z,26.30
2019-04-20T09:13:37.196Z,29.90
2019-04-20T09:16:13.060Z,28.70
2019-04-20T09:18:59.850Z,29.60
2019-04-20T09:21:46.230Z,29.70
2019-04-20T09:24:44.623Z,27.70
2019-04-20T09:27:14.483Z,29.10
2019-04-20T09:30:00.207Z,30.00
2019-04-20T09:32:44.083Z,30.60
2019-04-20T09:35:30.066Z,30.10
2019-04-20T09:38:12.097Z,29.60
2019-04-20T09:40:51.396Z,30.00
2019-04-20T09:43:38.973Z,29.90
2019-04-20T09:46:20.001Z,29.50
2019-04-20T09:49:08.036Z,28.70
2019-04-20T09:51:57.498Z,29.60
2019-04-20T09:54:41.308Z,29.30
2019-04-20T09:57:25.350Z,28.60
2019-04-20T10:00:10.353Z,29.20
2019-04-20T10:02:34.469Z,29.50
2019-04-20T10:05:13.592Z,29.30
2019-04-20T10:07:58.694Z,29.30
2019-04-20T10:10:41.914Z,29.00
2019-04-20T10:13:19.425Z,29.30
2019-04-20T10:15:59.742Z,28.80
2019-04-20T10:18:46.418Z,29.00
2019-04-20T10:21:21.680Z,28.50
2019-04-20T10:24:02.856Z,28.70
2019-04-20T10:26:43.002Z,27.50
2019-04-20T10:29:23.741Z,26.70
2019-04-20T10:32:10.228Z,26.90
2019-04-20T10:34:46.501Z,26.00
2019-04-20T10:37:33.664Z,25.80
2019-04-20T10:40:27.958Z,25.70
2019-04-20T10:42:59.407Z,27.70
2019-04-20T10:45:39.214Z,27.80
2019-04-20T10:48:19.451Z,27.90
2019-04-20T10:51:00.988Z,27.10
2019-04-20T10:53:40.387Z,26.60
2019-04-20T10:56:21.321Z,27.20
2019-04-20T10:59:01.862Z,27.80
2019-04-20T11:01:43.324Z,27.80
2019-04-20T11:04:23.897Z,27.20
2019-04-20T11:07:04.833Z,27.90
2019-04-20T11:09:45.257Z,27.00
2019-04-20T11:12:26.271Z,26.70
2019-04-20T11:15:06.604Z,26.20
2019-04-20T11:17:35.341Z,26.60
2019-04-20T11:23:04.284Z,25.70
2019-04-20T11:25:44.245Z,24.90
2019-04-20T11:28:24.198Z,25.30
2019-04-20T11:31:04.417Z,23.80
2019-04-20T11:33:45.642Z,24.00
2019-04-20T11:36:25.501Z,24.60
2019-04-20T11:39:07.049Z,22.80
2019-04-20T11:41:37.283Z,23.10
2019-04-20T11:44:05.571Z,23.30
2019-04-20T11:46:34.837Z,24.60
2019-04-20T11:49:21.994Z,26.20
2019-04-20T11:52:09.754Z,25.90
2019-04-20T11:54:52.506Z,26.30
2019-04-20T11:57:33.446Z,26.70
2019-04-20T12:00:15.296Z,26.70
2019-04-20T12:03:23.780Z,26.70
2019-04-20T12:05:59.819Z,26.90
2019-04-20T12:08:40.465Z,25.80
2019-04-20T12:17:07.950Z,25.30
2019-04-20T12:19:57.687Z,26.00
2019-04-20T12:22:38.078Z,26.40
2019-04-20T12:25:18.325Z,25.60
2019-04-20T12:28:00.550Z,25.50
2019-04-20T12:30:41.790Z,25.90
2019-04-20T12:33:09.633Z,25.00
2019-04-20T12:35:38.412Z,24.50
2019-04-20T12:38:27.428Z,24.00
2019-04-20T12:41:10.950Z,24.20
2019-04-20T12:43:50.201Z,24.10
2019-04-20T12:46:31.813Z,23.80
2019-04-20T12:49:13.577Z,23.50
2019-04-20T12:51:59.237Z,23.40
2019-04-20T12:54:36.889Z,23.20
2019-04-20T12:57:18.583Z,24.00
2019-04-20T12:59:59.456Z,23.70
2019-04-20T13:02:37.961Z,24.20
2019-04-20T13:05:25.607Z,22.30
2019-04-20T13:08:07.588Z,23.00
2019-04-20T13:10:36.681Z,23.20
2019-04-20T13:13:44.197Z,22.50
2019-04-20T13:16:36.383Z,23.20
2019-04-20T13:19:17.248Z,21.90
2019-04-20T13:21:56.789Z,22.40
2019-04-20T13:24:45.254Z,22.10
2019-04-20T13:27:27.020Z,23.20
2019-04-20T13:30:08.861Z,22.40
2019-04-20T13:32:38.203Z,23.30
2019-04-20T13:35:06.344Z,23.50
2019-04-20T13:37:54.155Z,22.80
2019-04-20T13:40:23.834Z,22.50
2019-04-20T13:43:05.815Z,22.50
2019-04-20T13:45:56.931Z,23.10
2019-04-20T13:48:44.873Z,23.20
2019-04-20T13:51:24.859Z,23.50
2019-04-20T13:54:06.332Z,22.40
2019-04-20T13:56:48.406Z,22.50
2019-04-20T14:02:30.921Z,21.90
2019-04-20T14:05:10.605Z,21.70
2019-04-20T14:07:51.384Z,21.60
2019-04-20T14:10:31.682Z,22.30
2019-04-20T14:13:16.561Z,22.80
2019-04-20T14:15:42.812Z,22.60
2019-04-20T14:18:31.132Z,23.10
2019-04-20T14:21:00.467Z,23.60
2019-04-20T14:23:28.237Z,23.50
2019-04-20T14:25:56.641Z,23.30
2019-04-20T14:28:24.899Z,23.30
2019-04-20T14:30:54.065Z,23.10
2019-04-20T14:33:23.074Z,23.10
2019-04-20T14:35:51.198Z,23.60
2019-04-20T14:38:20.130Z,23.30
2019-04-20T14:40:48.366Z,23.80
2019-04-20T14:43:17.214Z,23.60
2019-04-20T14:45:45.165Z,23.80
2019-04-20T14:48:13.099Z,24.50
2019-04-20T14:50:41.377Z,24.50
2019-04-20T14:53:29.520Z,25.10
2019-04-20T14:56:17.829Z,25.20
2019-04-20T15:02:19.478Z,26.20
2019-04-20T15:05:01.337Z,26.90
2019-04-20T15:07:29.089Z,26.50
2019-04-20T15:10:16.257Z,26.80
2019-04-20T15:13:05.959Z,27.00
2019-04-20T15:15:44.937Z,27.50
2019-04-20T15:18:29.354Z,27.20
2019-04-20T15:21:11.334Z,28.00
2019-04-20T15:23:51.646Z,27.80
2019-04-20T15:26:31.669Z,27.60
2019-04-20T15:29:12.536Z,28.20
2019-04-20T15:31:54.200Z,28.10
2019-04-20T15:34:35.055Z,28.60
2019-04-20T15:37:16.101Z,28.90
2019-04-20T15:39:58.969Z,29.20
2019-04-20T15:42:53.744Z,29.30
2019-04-20T15:45:23.263Z,29.30
2019-04-20T15:48:03.848Z,29.20
2019-04-20T15:50:43.814Z,28.60
2019-04-20T15:53:24.158Z,28.50
2019-04-20T15:56:07.631Z,28.60
2019-04-20T15:58:46.216Z,27.80
2019-04-20T16:01:30.274Z,28.10
2019-04-20T16:04:36.120Z,27.90
2019-04-20T16:07:15.155Z,27.70
2019-04-20T16:09:56.799Z,27.70
2019-04-20T16:12:36.738Z,28.10
2019-04-20T16:15:17.870Z,27.70
2019-04-20T16:17:58.902Z,27.90
2019-04-20T16:20:51.736Z,27.70
2019-04-20T16:23:22.669Z,27.50
2019-04-20T16:26:23.876Z,27.80
2019-04-20T16:29:03.888Z,27.50
2019-04-20T16:31:46.682Z,27.60
2019-04-20T16:34:27.504Z,27.90
2019-04-20T16:37:08.612Z,27.30
2019-04-20T16:39:48.761Z,27.40
2019-04-20T16:42:29.862Z,27.30
2019-04-20T16:45:11.464Z,27.10
2019-04-20T16:47:52.418Z,27.50
2019-04-20T16:50:33.094Z,27.60
2019-04-20T16:53:14.921Z,28.00
2019-04-20T16:55:56.829Z,27.90
2019-04-20T16:58:35.794Z,28.00
2019-04-20T17:01:23.464Z,28.10
2019-04-20T17:04:10.792Z,28.20
2019-04-20T17:07:06.307Z,28.60
2019-04-20T17:09:47.402Z,29.10
2019-04-20T17:12:28.050Z,29.00
2019-04-20T17:15:09.644Z,29.10
2019-04-20T17:17:51.389Z,29.30
2019-04-20T17:20:34.680Z,29.20
2019-04-20T17:23:15.105Z,29.30
2019-04-20T17:25:55.666Z,29.60
2019-04-20T17:29:01.949Z,29.90
2019-04-20T17:32:03.151Z,30.10
2019-04-20T17:35:00.103Z,30.60
2019-04-20T17:37:27.765Z,31.00
2019-04-20T17:40:32.496Z,30.50
2019-04-20T17:43:00.014Z,30.80
2019-04-20T17:45:41.501Z,30.90
2019-04-20T17:48:17.648Z,31.00
2019-04-20T17:51:04.762Z,30.50
2019-04-20T17:53:53.797Z,30.10
2019-04-20T17:56:28.611Z,29.80
2019-04-20T17:59:10.219Z,29.80
2019-04-20T18:02:07.861Z,30.00
2019-04-20T18:05:25.566Z,29.80
2019-04-20T18:08:04.180Z,30.10
2019-04-20T18:10:38.117Z,30.20
2019-04-20T18:13:16.575Z,30.40
2019-04-20T18:16:12.713Z,30.40
2019-04-20T18:19:03.983Z,30.30
2019-04-20T18:21:58.159Z,30.40
2019-04-20T18:25:02.655Z,30.90
2019-04-20T18:27:53.598Z,30.00
2019-04-20T18:30:18.617Z,30.10
2019-04-20T18:32:47.500Z,30.10
2019-04-20T18:35:28.889Z,30.30
2019-04-20T18:38:13.461Z,30.20
2019-04-20T18:40:50.637Z,30.00
2019-04-20T18:43:29.602Z,30.00
2019-04-20T18:46:26.093Z,30.10
2019-04-20T18:51:33.453Z,30.20
2019-04-20T18:54:28.160Z,30.10
2019-04-20T18:56:53.357Z,30.50
2019-04-20T18:59:23.362Z,30.60
2019-04-20T19:02:05.413Z,30.50
2019-04-20T19:04:45.850Z,30.50
2019-04-20T19:07:25.862Z,30.50
2019-04-20T19:10:14.529Z,30.70
2019-04-20T19:12:58.869Z,30.60
2019-04-20T19:15:56.019Z,30.80
2019-04-20T19:18:33.100Z,30.60
2019-04-20T19:20:52.960Z,30.80
2019-04-20T19:23:20.932Z,30.80
2019-04-20T19:25:49.769Z,31.10
2019-04-20T19:28:22.761Z,30.90
2019-04-20T19:31:00.237Z,31.10
2019-04-20T19:33:31.055Z,31.20
2019-04-20T19:35:57.454Z,31.20
2019-04-20T19:38:20.919Z,31.20
2019-04-20T19:40:55.855Z,31.20
2019-04-20T19:43:23.302Z,31.20
2019-04-20T19:46:24.389Z,31.00
2019-04-20T19:48:47.117Z,30.80
2019-04-20T19:51:38.551Z,30.80
2019-04-20T19:54:22.743Z,30.90
2019-04-20T19:56:54.324Z,30.80
2019-04-20T19:59:31.000Z,30.80
2019-04-20T20:08:05.495Z,30.20
2019-04-20T20:10:44.204Z,31.00
2019-04-20T20:13:24.919Z,31.20
2019-04-20T20:16:15.972Z,31.30
2019-04-20T20:19:01.415Z,31.40
2019-04-20T20:21:41.742Z,32.60
2019-04-20T20:24:15.819Z,34.90
2019-04-20T20:27:01.953Z,34.90
2019-04-20T20:29:45.319Z,34.50
2019-04-20T20:35:23.615Z,35.50
2019-04-20T20:38:14.795Z,34.50
2019-04-20T20:40:55.079Z,34.80
2019-04-20T20:43:42.401Z,34.60
2019-04-20T20:46:19.848Z,34.70
2019-04-20T20:49:28.360Z,35.10
2019-04-20T20:51:54.314Z,35.10
2019-04-20T20:54:29.609Z,35.40
2019-04-20T21:00:25.183Z,36.40
2019-04-20T21:02:59.304Z,37.00
2019-04-20T21:05:33.554Z,37.20
2019-04-20T21:08:15.555Z,37.50
2019-04-20T21:10:56.612Z,37.50
2019-04-20T21:13:42.308Z,38.30
2019-04-20T21:16:23.865Z,39.20
2019-04-20T21:19:18.238Z,39.10
2019-04-20T21:21:50.386Z,39.50
2019-04-20T21:24:28.778Z,39.00
2019-04-20T21:27:13.335Z,39.20
2019-04-20T21:29:54.678Z,39.90
2019-04-20T21:32:39.610Z,39.90
2019-04-20T21:35:16.172Z,40.20
2019-04-20T21:38:02.665Z,40.00
2019-04-20T21:40:42.645Z,39.60
2019-04-20T21:43:27.903Z,40.30
2019-04-20T21:46:05.478Z,40.10
2019-04-20T21:48:59.611Z,40.10
2019-04-20T21:51:36.999Z,40.80
2019-04-20T21:54:09.601Z,41.00
2019-04-20T21:56:56.164Z,41.40
2019-04-20T21:59:38.615Z,41.40
2019-04-20T22:02:20.898Z,41.10
2019-04-20T22:04:57.630Z,41.30
2019-04-20T22:07:38.564Z,42.00
2019-04-20T22:10:24.172Z,42.30
2019-04-20T22:13:02.723Z,42.70
2019-04-20T22:15:50.518Z,43.30
2019-04-20T22:18:25.793Z,43.30
2019-04-20T22:21:18.777Z,43.80
2019-04-20T22:24:05.384Z,44.40
2019-04-20T22:26:41.610Z,44.70
2019-04-20T22:29:14.299Z,44.60
2019-04-20T22:32:01.445Z,45.20
2019-04-20T22:34:37.620Z,45.30
2019-04-20T22:37:22.976Z,44.90
2019-04-20T22:40:01.215Z,45.20
2019-04-20T22:42:46.524Z,45.30
2019-04-20T22:45:23.606Z,45.50
2019-04-20T22:48:07.066Z,46.00
2019-04-20T22:51:08.830Z,46.50
2019-04-20T22:53:42.783Z,46.40
2019-04-20T22:56:24.424Z,46.30
2019-04-20T22:59:02.115Z,46.30
2019-04-20T23:01:40.786Z,46.30
2019-04-20T23:04:17.054Z,47.10
2019-04-20T23:06:58.718Z,47.30
2019-04-20T23:09:48.692Z,47.70
2019-04-20T23:12:23.787Z,47.60
2019-04-20T23:15:04.535Z,47.50
2019-04-20T23:17:47.570Z,48.20
2019-04-20T23:20:30.768Z,47.80
2019-04-20T23:23:12.408Z,48.40
2019-04-20T23:25:51.352Z,48.50
2019-04-20T23:28:33.254Z,48.60
2019-04-20T23:31:18.426Z,49.00
2019-04-20T23:33:56.114Z,49.20
2019-04-20T23:36:40.453Z,49.40
2019-04-20T23:39:19.052Z,49.30
2019-04-20T23:42:02.433Z,49.50
2019-04-20T23:45:01.699Z,49.60
2019-04-20T23:47:53.209Z,49.60
2019-04-20T23:50:46.193Z,49.90
2019-04-20T23:53:29.745Z,50.10
2019-04-20T23:55:54.008Z,50.40
2019-04-20T23:58:42.433Z,50.70
